createdAt,value
2022-08-31T00:01:29.709Z,30.1
2022-08-31T00:03:29.721Z,29.95
2022-08-31T00:05:29.709Z,29.91
2022-08-31T00:08:29.726Z,29.87
2022-08-31T00:11:29.661Z,29.88
2022-08-31T00:13:29.887Z,29.73
2022-08-31T00:15:29.730Z,29.97
2022-08-31T00:18:29.711Z,29.6
2022-08-31T00:20:33.032Z,29.76
2022-08-31T00:23:29.739Z,29.75
2022-08-31T00:26:29.715Z,29.86
2022-08-31T00:28:29.762Z,30
2022-08-31T00:31:29.760Z,30.26
2022-08-31T00:33:29.719Z,29.92
2022-08-31T00:35:29.721Z,30.38
2022-08-31T00:38:29.737Z,31.11
2022-08-31T00:40:30.072Z,31.89
2022-08-31T00:43:29.727Z,32.88
2022-08-31T00:46:29.754Z,34.63
2022-08-31T00:48:29.811Z,34.85
2022-08-31T00:51:29.744Z,36.59
2022-08-31T00:54:29.721Z,37.27
2022-08-31T00:56:29.717Z,37.11
2022-08-31T00:58:29.727Z,36.9
2022-08-31T01:01:29.810Z,37.74
2022-08-31T01:04:29.734Z,37.81
2022-08-31T01:07:40.032Z,36.99
2022-08-31T01:09:40.033Z,37.42
2022-08-31T01:12:29.738Z,38.89
2022-08-31T01:15:29.740Z,38.53
2022-08-31T01:18:29.706Z,37.77
2022-08-31T01:20:29.747Z,37.34
2022-08-31T01:22:29.741Z,38.68
2022-08-31T01:25:33.390Z,39.48
2022-08-31T01:28:29.765Z,39.22
2022-08-31T01:31:29.829Z,39.23
2022-08-31T01:34:29.721Z,38.92
2022-08-31T01:37:30.345Z,38.12
2022-08-31T01:39:29.707Z,39.45
2022-08-31T01:42:30.986Z,39.95
2022-08-31T01:44:29.695Z,38.89
2022-08-31T01:47:02.040Z,38.38
2022-08-31T01:48:29.777Z,38.92
2022-08-31T01:51:29.732Z,40.27
2022-08-31T01:54:29.697Z,39.09
2022-08-31T01:56:29.764Z,39.3
2022-08-31T01:59:29.709Z,39.24
2022-08-31T02:01:33.326Z,39.25
2022-08-31T02:04:29.765Z,39.73
2022-08-31T02:07:29.711Z,39.24
2022-08-31T02:09:29.725Z,40.08
2022-08-31T02:11:29.723Z,41.47
2022-08-31T02:14:29.731Z,41.51
2022-08-31T02:16:29.816Z,40.45
2022-08-31T02:19:29.750Z,42.23
2022-08-31T02:22:29.712Z,40.97
2022-08-31T02:25:29.704Z,40.79
2022-08-31T02:27:29.728Z,39.95
2022-08-31T02:30:29.713Z,41.02
2022-08-31T02:32:29.721Z,41.13
2022-08-31T02:34:29.722Z,41.89
2022-08-31T02:36:29.761Z,40.34
2022-08-31T02:39:29.720Z,41.46
2022-08-31T02:42:33.126Z,40.66
2022-08-31T02:45:29.730Z,40.99
2022-08-31T02:48:29.727Z,41.02
2022-08-31T02:50:29.737Z,42.42
2022-08-31T02:53:29.730Z,38.18
2022-08-31T02:55:29.736Z,37.1
2022-08-31T02:58:29.746Z,36.46
2022-08-31T03:01:29.815Z,36.12
2022-08-31T03:03:29.764Z,35.96
2022-08-31T03:06:29.757Z,35.81
2022-08-31T03:08:31.072Z,35.83
2022-08-31T03:11:29.742Z,35.72
2022-08-31T03:14:29.759Z,35.68
2022-08-31T03:16:29.749Z,35.77
2022-08-31T03:18:29.770Z,35.64
2022-08-31T03:21:29.752Z,35.74
2022-08-31T03:23:29.739Z,35.87
2022-08-31T03:26:29.773Z,35.75
2022-08-31T03:29:29.733Z,35.75
2022-08-31T03:32:29.763Z,35.86
2022-08-31T03:35:29.724Z,35.66
2022-08-31T03:37:29.776Z,35.79
2022-08-31T03:39:29.771Z,35.69
2022-08-31T03:42:29.784Z,35.86
2022-08-31T03:45:29.740Z,35.69
2022-08-31T03:47:29.763Z,35.75
2022-08-31T03:49:29.756Z,35.8
2022-08-31T03:51:29.763Z,35.82
2022-08-31T03:54:29.771Z,35.83
2022-08-31T03:56:29.789Z,35.83
2022-08-31T03:59:29.771Z,35.94
2022-08-31T04:01:29.820Z,35.98
2022-08-31T04:04:29.799Z,36.13
2022-08-31T04:07:29.773Z,36.29
2022-08-31T04:09:29.797Z,36.33
2022-08-31T04:11:32.755Z,36.1
2022-08-31T04:13:30.410Z,36.32
2022-08-31T04:15:29.879Z,36.18
2022-08-31T04:18:29.792Z,36.78
2022-08-31T04:21:29.819Z,37.68
2022-08-31T04:24:29.770Z,38.19
2022-08-31T04:26:29.798Z,37.65
2022-08-31T04:28:29.790Z,37.85
2022-08-31T04:30:29.812Z,37.29
2022-08-31T04:33:29.807Z,37.26
2022-08-31T04:36:29.834Z,38.02
2022-08-31T04:38:30.909Z,37.98
2022-08-31T04:41:29.834Z,38.23
2022-08-31T04:44:29.796Z,37.78
2022-08-31T04:47:29.798Z,37.41
2022-08-31T04:49:29.782Z,37.8
2022-08-31T04:51:29.844Z,37.53
2022-08-31T04:54:29.801Z,37.79
2022-08-31T04:57:29.792Z,37.53
2022-08-31T04:59:29.772Z,37.52
2022-08-31T05:01:33.526Z,37.34
2022-08-31T05:03:29.818Z,37.6
2022-08-31T05:06:29.800Z,37.56
2022-08-31T05:08:29.833Z,37.59
2022-08-31T05:11:29.835Z,37.59
2022-08-31T05:14:29.796Z,37.41
2022-08-31T05:16:29.836Z,37.06
2022-08-31T05:19:40.478Z,37.15
2022-08-31T05:22:29.807Z,36.78
2022-08-31T05:24:29.812Z,37.08
2022-08-31T05:26:29.796Z,37.05
2022-08-31T05:28:29.821Z,37.34
2022-08-31T05:31:29.824Z,37.32
2022-08-31T05:34:29.831Z,37.07
2022-08-31T05:37:29.766Z,36.85
2022-08-31T05:39:29.840Z,37.04
2022-08-31T05:42:29.832Z,37.09
2022-08-31T05:44:29.850Z,36.89
2022-08-31T05:46:29.877Z,36.64
2022-08-31T05:49:29.787Z,36.93
2022-08-31T05:51:29.818Z,36.39
2022-08-31T05:54:29.820Z,35.61
2022-08-31T05:56:37.000Z,35.7
2022-08-31T05:58:29.865Z,35.18
2022-08-31T06:01:29.856Z,34.93
2022-08-31T06:04:29.835Z,34.9
2022-08-31T06:07:30.629Z,34.52
2022-08-31T06:10:29.820Z,34.53
2022-08-31T06:12:29.824Z,34.59
2022-08-31T06:15:29.856Z,34.35
2022-08-31T06:18:29.825Z,34.38
2022-08-31T06:21:29.889Z,34.73
2022-08-31T06:24:29.839Z,34.28
2022-08-31T06:27:29.873Z,34.25
2022-08-31T06:30:29.807Z,34.49
2022-08-31T06:33:29.826Z,34.49
2022-08-31T06:36:29.804Z,34.48
2022-08-31T06:38:32.010Z,34.13
2022-08-31T06:40:29.832Z,34.18
2022-08-31T06:43:30.045Z,34.5
2022-08-31T06:46:29.857Z,34.49
2022-08-31T06:48:29.798Z,34.46
2022-08-31T06:50:29.846Z,34.26
2022-08-31T06:53:29.824Z,34.42
2022-08-31T06:55:29.836Z,34.36
2022-08-31T06:58:29.846Z,34.53
2022-08-31T07:01:34.736Z,34.66
2022-08-31T07:03:29.864Z,34.7
2022-08-31T07:06:29.802Z,34.86
2022-08-31T07:09:02.272Z,35.15
2022-08-31T07:10:29.819Z,34.95
2022-08-31T07:13:29.853Z,35.43
2022-08-31T07:15:29.832Z,35.45
2022-08-31T07:17:29.842Z,35.66
2022-08-31T07:20:29.832Z,35.4
2022-08-31T07:22:29.843Z,35.46
2022-08-31T07:25:29.850Z,35.29
2022-08-31T07:27:29.856Z,35.47
2022-08-31T07:30:33.342Z,35.42
2022-08-31T07:32:29.844Z,35.66
2022-08-31T07:35:29.868Z,35.69
2022-08-31T07:38:29.895Z,35.73
2022-08-31T07:41:29.876Z,35.82
2022-08-31T07:44:29.864Z,36.05
2022-08-31T07:47:29.867Z,36
2022-08-31T07:49:29.883Z,35.95
2022-08-31T07:51:29.909Z,35.71
2022-08-31T07:54:29.862Z,35.97
2022-08-31T07:57:29.889Z,36.51
2022-08-31T07:59:29.891Z,36.57
2022-08-31T08:02:29.967Z,36.74
2022-08-31T08:05:29.857Z,36.49
2022-08-31T08:07:29.897Z,36.84
2022-08-31T08:10:29.883Z,36.88
2022-08-31T08:13:29.862Z,36.95
2022-08-31T08:15:29.865Z,36.65
2022-08-31T08:18:29.858Z,36.82
2022-08-31T08:20:34.245Z,36.65
2022-08-31T08:23:29.883Z,36.65
2022-08-31T08:25:29.863Z,36.74
2022-08-31T08:27:29.895Z,36.64
2022-08-31T08:29:30.169Z,36.33
2022-08-31T08:32:29.892Z,36.74
2022-08-31T08:35:29.877Z,36.32
2022-08-31T08:37:47.759Z,36.49
2022-08-31T08:40:29.983Z,36.57
2022-08-31T08:43:31.012Z,36.58
2022-08-31T08:45:29.985Z,37.31
2022-08-31T08:48:29.873Z,37.54
2022-08-31T08:50:29.898Z,38.65
2022-08-31T08:53:29.873Z,38.43
2022-08-31T08:56:33.168Z,40.07
2022-08-31T08:58:29.911Z,41.58
2022-08-31T09:01:29.990Z,41.57
2022-08-31T09:04:29.850Z,40.69
2022-08-31T09:06:32.216Z,41.21
2022-08-31T09:09:29.868Z,39.81
2022-08-31T09:11:29.877Z,41.31
2022-08-31T09:13:29.895Z,42.49
2022-08-31T09:16:29.934Z,42.73
2022-08-31T09:18:29.901Z,43.79
2022-08-31T09:21:29.879Z,43.41
2022-08-31T09:23:29.904Z,46.2
2022-08-31T09:25:29.942Z,47.04
2022-08-31T09:28:29.918Z,46.88
2022-08-31T09:30:29.922Z,46.54
2022-08-31T09:33:29.929Z,45.74
2022-08-31T09:36:29.923Z,46.92
2022-08-31T09:38:29.908Z,47.27
2022-08-31T09:41:30.009Z,46.39
2022-08-31T09:44:29.891Z,45.65
2022-08-31T09:46:29.939Z,46.46
2022-08-31T09:48:29.899Z,46.08
2022-08-31T09:50:29.942Z,46.48
2022-08-31T09:52:29.928Z,45.98
2022-08-31T09:55:29.916Z,47.82
2022-08-31T09:57:29.931Z,45.98
2022-08-31T09:59:29.914Z,45.95
2022-08-31T10:01:30.055Z,46.58
2022-08-31T10:04:29.921Z,46.97
2022-08-31T10:06:29.907Z,45.5
2022-08-31T10:08:29.925Z,46.96
2022-08-31T10:11:29.946Z,44.98
2022-08-31T10:13:29.927Z,45.6
2022-08-31T10:16:29.955Z,47.27
2022-08-31T10:19:29.958Z,48.23
2022-08-31T10:21:29.948Z,47.81
2022-08-31T10:24:29.997Z,46.77
2022-08-31T10:27:29.933Z,46.54
2022-08-31T10:29:29.943Z,46.31
2022-08-31T10:31:29.993Z,46.06
2022-08-31T10:34:29.941Z,46.5
2022-08-31T10:36:37.402Z,45.97
2022-08-31T10:39:29.976Z,45.83
2022-08-31T10:42:29.941Z,46.1
2022-08-31T10:44:29.940Z,46.15
2022-08-31T10:47:32.562Z,45.42
2022-08-31T10:49:29.961Z,44.89
2022-08-31T10:51:29.940Z,45.84
2022-08-31T10:54:29.911Z,46.76
2022-08-31T10:56:29.922Z,46.85
2022-08-31T10:59:29.930Z,47.72
2022-08-31T11:01:29.989Z,46.07
2022-08-31T11:04:29.954Z,47.41
2022-08-31T11:07:29.910Z,46.83
2022-08-31T11:09:29.921Z,48.31
2022-08-31T11:12:29.896Z,47.97
2022-08-31T11:14:29.944Z,45.7
2022-08-31T11:16:30.880Z,47.88
2022-08-31T11:19:29.938Z,45.59
2022-08-31T11:21:29.949Z,47.52
2022-08-31T11:23:29.978Z,44.42
2022-08-31T11:26:29.907Z,47.44
2022-08-31T11:28:29.961Z,47.89
2022-08-31T11:31:29.955Z,49.25
2022-08-31T11:33:29.941Z,49.64
2022-08-31T11:35:29.984Z,48.25
2022-08-31T11:38:29.955Z,48.21
2022-08-31T11:41:29.985Z,47.84
2022-08-31T11:44:29.961Z,47.02
2022-08-31T11:47:29.935Z,48.69
2022-08-31T11:49:29.959Z,49.56
2022-08-31T11:52:29.959Z,47.51
2022-08-31T11:55:29.935Z,49.46
2022-08-31T11:57:32.209Z,49.76
2022-08-31T12:00:37.156Z,48.32
2022-08-31T12:02:30.033Z,50.48
2022-08-31T12:05:30.232Z,47.66
2022-08-31T12:08:29.918Z,49.1
2022-08-31T12:10:29.921Z,48.3
2022-08-31T12:12:29.963Z,47.54
2022-08-31T12:14:29.989Z,48.18
2022-08-31T12:17:29.951Z,47.54
2022-08-31T12:20:29.972Z,49.24
2022-08-31T12:23:31.237Z,50.67
2022-08-31T12:26:29.955Z,48.61
2022-08-31T12:29:29.981Z,47.89
2022-08-31T12:32:29.933Z,49.75
2022-08-31T12:34:29.973Z,50.8
2022-08-31T12:37:29.927Z,46.79
2022-08-31T12:39:30.184Z,47.46
2022-08-31T12:42:29.985Z,48.11
2022-08-31T12:44:29.974Z,47.65
2022-08-31T12:46:30.027Z,47.93
2022-08-31T12:49:29.944Z,48.62
2022-08-31T12:51:29.949Z,48.78
2022-08-31T12:54:29.961Z,48.81
2022-08-31T12:56:30.002Z,50.61
2022-08-31T12:58:30.308Z,52.19
2022-08-31T13:01:30.075Z,54.43
2022-08-31T13:04:37.160Z,53.56
2022-08-31T13:07:29.973Z,53.72
2022-08-31T13:09:29.970Z,53.25
2022-08-31T13:12:30.012Z,53.02
2022-08-31T13:15:29.979Z,52.29
2022-08-31T13:18:30.031Z,52.22
2022-08-31T13:21:29.965Z,52.51
2022-08-31T13:23:29.995Z,53.09
2022-08-31T13:26:29.967Z,52.56
2022-08-31T13:28:30.013Z,53.76
2022-08-31T13:33:29.999Z,52.33
2022-08-31T13:36:30.015Z,52.67
2022-08-31T13:39:30.043Z,52.73
2022-08-31T13:42:30.019Z,53.25
2022-08-31T13:44:30.025Z,51.12
2022-08-31T13:47:38.043Z,51.55
2022-08-31T13:50:30.072Z,46.58
2022-08-31T13:52:30.046Z,44.43
2022-08-31T13:54:30.055Z,43.79
2022-08-31T13:57:32.921Z,42.29
2022-08-31T13:59:30.042Z,43.37
2022-08-31T14:02:30.745Z,42.45
2022-08-31T14:05:30.058Z,40.66
2022-08-31T14:08:30.174Z,41.19
2022-08-31T14:11:29.985Z,36.5
2022-08-31T14:13:29.996Z,40.06
2022-08-31T14:16:29.979Z,37.77
2022-08-31T14:18:29.980Z,35.42
2022-08-31T14:21:29.972Z,36.25
2022-08-31T14:23:29.968Z,36.59
2022-08-31T14:26:30.008Z,36.13
2022-08-31T14:28:29.980Z,34.73
2022-08-31T14:31:30.019Z,34.8
2022-08-31T14:34:29.980Z,35.28
2022-08-31T14:37:30.000Z,34.15
2022-08-31T14:40:30.047Z,33.79
2022-08-31T14:42:29.975Z,33.25
2022-08-31T14:44:29.985Z,33.59
2022-08-31T14:46:29.995Z,34.4
2022-08-31T14:49:32.751Z,32.44
2022-08-31T14:51:30.033Z,32.64
2022-08-31T14:54:30.002Z,33.26
2022-08-31T14:57:29.995Z,33.06
2022-08-31T15:00:30.020Z,32.99
2022-08-31T15:03:30.017Z,32.23
2022-08-31T15:05:30.005Z,32.35
2022-08-31T15:08:37.744Z,31.81
2022-08-31T15:11:30.007Z,31.85
2022-08-31T15:14:35.082Z,31.87
2022-08-31T15:16:29.997Z,31.49
2022-08-31T15:18:30.017Z,31.87
2022-08-31T15:20:29.997Z,31.9
2022-08-31T15:22:30.011Z,31.91
2022-08-31T15:25:30.026Z,32.58
2022-08-31T15:27:30.036Z,32.45
2022-08-31T15:30:30.035Z,32.22
2022-08-31T15:32:30.025Z,32.38
2022-08-31T15:35:30.037Z,32.53
2022-08-31T15:38:30.015Z,32.8
2022-08-31T15:40:29.979Z,33.19
2022-08-31T15:42:29.994Z,33.52
2022-08-31T15:45:30.094Z,33.06
2022-08-31T15:47:30.038Z,33.22
2022-08-31T15:50:31.459Z,33.37
2022-08-31T15:53:30.045Z,33.72
2022-08-31T15:56:30.488Z,33.45
2022-08-31T15:59:30.019Z,33.63
2022-08-31T16:01:30.129Z,33.93
2022-08-31T16:04:30.012Z,33.9
2022-08-31T16:06:30.063Z,34.05
2022-08-31T16:09:30.067Z,34.08
2022-08-31T16:12:30.056Z,34.32
2022-08-31T16:15:32.373Z,34.17
2022-08-31T16:18:30.053Z,33.62
2022-08-31T16:21:30.049Z,33.79
2022-08-31T16:24:30.042Z,33.33
2022-08-31T16:26:30.075Z,33.06
2022-08-31T16:29:30.049Z,32.64
2022-08-31T16:32:30.071Z,32.6
2022-08-31T16:34:30.066Z,32.24
2022-08-31T16:37:30.072Z,32.18
2022-08-31T16:40:30.181Z,31.92
2022-08-31T16:42:30.082Z,31.82
2022-08-31T16:44:30.211Z,31.89
2022-08-31T16:47:30.074Z,31.83
2022-08-31T16:49:30.364Z,31.77
2022-08-31T16:52:30.075Z,31.65
2022-08-31T16:54:30.066Z,31.72
2022-08-31T16:56:30.096Z,31.67
2022-08-31T16:59:30.041Z,31.89
2022-08-31T17:01:30.128Z,31.76
2022-08-31T17:04:50.806Z,32.3
2022-08-31T17:06:30.101Z,31.91
2022-08-31T17:09:30.102Z,32.12
2022-08-31T17:12:30.104Z,32.58
2022-08-31T17:14:30.080Z,32.89
2022-08-31T17:16:30.186Z,33
2022-08-31T17:19:30.049Z,33.42
2022-08-31T17:21:30.085Z,33.96
2022-08-31T17:24:30.056Z,34.47
2022-08-31T17:26:30.066Z,34.59
2022-08-31T17:29:30.091Z,35.06
2022-08-31T17:32:30.057Z,35.25
2022-08-31T17:35:30.134Z,35.42
2022-08-31T17:37:30.082Z,35.43
2022-08-31T17:40:30.180Z,35.58
2022-08-31T17:43:30.101Z,36.18
2022-08-31T17:46:30.248Z,36.35
2022-08-31T17:49:30.073Z,36.53
2022-08-31T17:51:30.079Z,36.77
2022-08-31T17:54:30.057Z,37.11
2022-08-31T17:57:30.110Z,39.15
2022-08-31T18:00:30.143Z,39.65
2022-08-31T18:03:30.083Z,40.17
2022-08-31T18:05:30.068Z,40.65
2022-08-31T18:07:30.157Z,40.68
2022-08-31T18:10:30.110Z,40.71
2022-08-31T18:12:30.127Z,40.59
2022-08-31T18:15:30.094Z,41
2022-08-31T18:17:30.105Z,40.92
2022-08-31T18:20:30.078Z,41.48
2022-08-31T18:22:30.086Z,41.46
2022-08-31T18:25:30.086Z,41.37
2022-08-31T18:27:30.119Z,41.52
2022-08-31T18:30:30.102Z,41.77
2022-08-31T18:33:30.113Z,42.17
2022-08-31T18:36:30.113Z,42.36
2022-08-31T18:39:50.411Z,42.46
2022-08-31T18:41:30.129Z,42.49
2022-08-31T18:43:30.115Z,42.63
2022-08-31T18:45:30.100Z,42.88
2022-08-31T18:48:30.107Z,43.01
2022-08-31T18:51:30.097Z,43.03
2022-08-31T18:54:30.085Z,43.52
2022-08-31T18:57:30.107Z,43.14
2022-08-31T18:59:37.306Z,42.53
2022-08-31T19:01:33.563Z,41.91
2022-08-31T19:04:30.104Z,42.45
2022-08-31T19:06:30.127Z,41.94
2022-08-31T19:09:30.134Z,42.15
2022-08-31T19:12:30.095Z,41.96
2022-08-31T19:14:30.154Z,43.11
2022-08-31T19:16:30.221Z,43.11
2022-08-31T19:19:30.100Z,43.5
2022-08-31T19:21:30.209Z,43.68
2022-08-31T19:24:30.154Z,44.25
2022-08-31T19:27:30.116Z,43.52
2022-08-31T19:30:30.202Z,43.22
2022-08-31T19:33:30.163Z,43.91
2022-08-31T19:36:30.100Z,43.87
2022-08-31T19:38:30.162Z,44.01
2022-08-31T19:41:30.160Z,44.05
2022-08-31T19:45:42.204Z,43.42
2022-08-31T19:47:30.245Z,43.9
2022-08-31T19:50:30.158Z,43.8
2022-08-31T19:53:30.178Z,44.48
2022-08-31T19:56:30.143Z,43.97
2022-08-31T19:59:30.122Z,43.77
2022-08-31T20:01:30.230Z,43.64
2022-08-31T20:03:30.144Z,43.85
2022-08-31T20:05:30.148Z,44.13
2022-08-31T20:08:30.106Z,43.8
2022-08-31T20:10:30.434Z,43.39
2022-08-31T20:13:30.154Z,43.6
2022-08-31T20:16:33.525Z,43.29
2022-08-31T20:18:30.149Z,43.5
2022-08-31T20:21:30.161Z,43.64
2022-08-31T20:24:30.161Z,44.22
2022-08-31T20:26:33.318Z,44.2
2022-08-31T20:28:30.167Z,44
2022-08-31T20:30:30.206Z,43.8
2022-08-31T20:33:30.185Z,43.78
2022-08-31T20:35:30.179Z,43.31
2022-08-31T20:37:30.165Z,43.52
2022-08-31T20:40:30.212Z,43.74
2022-08-31T20:43:32.451Z,44.22
2022-08-31T20:45:30.192Z,44.25
2022-08-31T20:48:30.177Z,44.33
2022-08-31T20:51:30.168Z,44.28
2022-08-31T20:54:30.153Z,44.8
2022-08-31T20:56:30.155Z,44.82
2022-08-31T20:58:30.155Z,44.91
2022-08-31T21:00:30.179Z,44.83
2022-08-31T21:03:30.138Z,44.41
2022-08-31T21:06:30.176Z,44.48
2022-08-31T21:09:30.129Z,44.22
2022-08-31T21:11:30.143Z,44.62
2022-08-31T21:13:30.156Z,44.68
2022-08-31T21:16:30.199Z,44.47
2022-08-31T21:19:30.162Z,44.4
2022-08-31T21:22:30.113Z,44.33
2022-08-31T21:24:30.140Z,44.55
2022-08-31T21:27:30.180Z,44.17
2022-08-31T21:30:30.133Z,43.87
2022-08-31T21:32:30.175Z,43.83
2022-08-31T21:35:30.102Z,43.89
2022-08-31T21:38:30.102Z,44.03
2022-08-31T21:41:30.450Z,44.43
2022-08-31T21:44:30.156Z,44.79
2022-08-31T21:46:30.192Z,44.78
2022-08-31T21:48:30.214Z,44.59
2022-08-31T21:51:30.164Z,44.54
2022-08-31T21:54:30.190Z,44.91
2022-08-31T21:57:30.190Z,44.72
2022-08-31T22:00:30.171Z,44.56
2022-08-31T22:03:30.147Z,44.43
2022-08-31T22:05:30.196Z,44.57
2022-08-31T22:08:30.171Z,44.14
2022-08-31T22:11:30.172Z,44.28
2022-08-31T22:13:30.201Z,44.23
2022-08-31T22:15:30.208Z,44.18
2022-08-31T22:17:48.517Z,44.49
2022-08-31T22:20:30.147Z,44.5
2022-08-31T22:23:30.304Z,44.42
2022-08-31T22:26:30.189Z,44.33
2022-08-31T22:29:30.194Z,44.32
2022-08-31T22:32:30.193Z,44.14
2022-08-31T22:34:30.185Z,43.97
2022-08-31T22:37:30.165Z,43.88
2022-08-31T22:39:30.186Z,43.37
2022-08-31T22:42:30.198Z,43.79
2022-08-31T22:45:30.210Z,43.53
2022-08-31T22:48:30.187Z,43.72
2022-08-31T22:50:30.210Z,43.72
2022-08-31T22:52:30.196Z,43.84
2022-08-31T22:55:30.280Z,43.63
2022-08-31T22:58:30.199Z,43.3
2022-08-31T23:02:02.480Z,43.38
2022-08-31T23:04:30.259Z,43.35
2022-08-31T23:07:30.212Z,43.73
2022-08-31T23:10:30.194Z,43.77
2022-08-31T23:13:30.184Z,43.94
2022-08-31T23:15:30.213Z,43.84
2022-08-31T23:18:30.211Z,43.87
2022-08-31T23:21:30.185Z,43.92
2022-08-31T23:23:30.440Z,44.01
2022-08-31T23:26:30.228Z,43.96
2022-08-31T23:28:30.233Z,43.88
2022-08-31T23:31:30.266Z,44.04
2022-08-31T23:34:30.184Z,44.1
2022-08-31T23:36:30.204Z,44.39
2022-08-31T23:39:30.210Z,44.13
2022-08-31T23:42:30.634Z,43.94
2022-08-31T23:45:30.186Z,43.99
2022-08-31T23:47:30.208Z,43.91
2022-08-31T23:49:30.176Z,44.01
2022-08-31T23:51:30.208Z,44.18
2022-08-31T23:53:30.218Z,44.32
2022-08-31T23:56:30.215Z,44.45
2022-08-31T23:59:30.264Z,44.26
